11:45
Airports
Links
Donate
Help keep this website running!
PayPal
Bitcoin
METAR
PHNL 201053Z 04007KT 10SM FEW026 23/21 A2997 RMK AO2 SLP150 T02330206
Current Weather Conditions at PHNL
VFR 10:53:00 20-08-17
Automated station
Altimeter:29.97 hg
Temp:23.3°c 73°f
Dew point:20.6°c 68°f
Wind:7 knots, 8.1 mph, 4 m/s, from 40°
Visibility:10.0 statute miles
2600(FEW) A few
Past METAR reports
VFR 09:53:00 20-08-17
Automated station
Altimeter:29.99 hg
Temp:23.9°c 73°f
Dew point:20.6°c 68°f
Wind:11 knots, 12.7 mph, 6 m/s, from 50°
Visibility:10.0 statute miles
4300(SCT) Scattered
3600(FEW) A few
2500(FEW) A few
PHNL 200953Z 05011KT 10SM FEW025 FEW036 SCT043 24/21 A2999 RMK AO2 SLP153 T02390206 403280239
VFR 08:53:00 20-08-17
Automated station
Altimeter:29.99 hg
Temp:23.9°c 73°f
Dew point:20.6°c 68°f
Wind:3 knots, 3.5 mph, 2 m/s, from 30°
Visibility:10.0 statute miles
5000(SCT) Scattered
3200(FEW) A few
2200(FEW) A few
PHNL 200853Z 03003KT 10SM FEW022 FEW032 SCT050 24/21 A2999 RMK AO2 SLP154 T02390206 51014
VFR 07:53:00 20-08-17
Automated station
Altimeter:29.98 hg
Temp:23.9°c 73°f
Dew point:20.6°c 68°f
Wind:5 knots, 5.8 mph, 3 m/s, from 20°
Visibility:10.0 statute miles
5500(SCT) Scattered
3600(SCT) Scattered
2200(FEW) A few
PHNL 200753Z 02005KT 10SM FEW022 SCT036 SCT055 24/21 A2998 RMK AO2 SLP152 T02390206
VFR 06:53:00 20-08-17
Automated station
Altimeter:29.97 hg
Temp:23.9°c 73°f
Dew point:20.6°c 68°f
Wind:5 knots, 5.8 mph, 3 m/s, from 40°
Visibility:10.0 statute miles
7000(SCT) Scattered
3200(FEW) A few
2000(FEW) A few
PHNL 200653Z 04005KT 10SM FEW020 FEW032 SCT070 24/21 A2997 RMK AO2 SLP149 T02390206
VFR 05:53:00 20-08-17
Automated station
Altimeter:29.95 hg
Temp:27.2°c 81°f
Dew point:19.4°c 66°f
Wind:8 knots, 9.2 mph, 4 m/s, from 50°
Visibility:10.0 statute miles
7000(SCT) Scattered
3400(FEW) A few
2200(FEW) A few
PHNL 200553Z 05008KT 10SM FEW022 FEW034 SCT070 27/19 A2995 RMK AO2 SLP140 T02720194 10322 20267 53016
TAF
PHNL 201139Z 2012/2118 05005KT P6SM FEW025 SCT045 FM202000 06012G18KT P6SM FEW025 SCT050 FM210500 05005KT P6SM SCT025 BKN050
Forecast at PHNL
12:00 20-08-17 to 20:00 20-08-17
Wind:5 Knots from 50°
Visibility:6.21 statute miles
2500FEW A few
4500SCT Scattered
FM 20:00 20-08-17 to 05:00 21-08-17
Wind:12 Knots from 60°
Visibility:6.21 statute miles
2500FEW A few
5000SCT Scattered
FM 05:00 21-08-17 to 18:00 21-08-17
Wind:5 Knots from 50°
Visibility:6.21 statute miles
2500SCT Scattered
5000BKN Broken